createdAt,value
2017-12-02T01:19:37.804Z,16.70
2017-12-02T01:22:04.392Z,16.57
2017-12-02T01:24:30.986Z,16.57
2017-12-02T01:26:57.590Z,16.50
2017-12-02T01:29:24.177Z,16.00
2017-12-02T01:31:51.351Z,17.00
2017-12-02T01:34:17.963Z,16.17
2017-12-02T01:36:44.546Z,16.83
2017-12-02T01:39:11.141Z,15.47
2017-12-02T01:41:37.754Z,16.73
2017-12-02T01:44:04.356Z,15.73
2017-12-02T01:46:30.950Z,16.20
2017-12-02T01:48:57.585Z,16.03
2017-12-02T01:51:24.183Z,15.27
2017-12-02T01:53:50.780Z,15.50
2017-12-02T01:56:17.383Z,17.03
2017-12-02T01:58:43.975Z,15.80
2017-12-02T02:01:12.258Z,15.40
2017-12-02T02:03:38.858Z,15.33
2017-12-02T02:06:05.474Z,15.30
2017-12-02T02:08:32.158Z,16.70
2017-12-02T02:10:58.775Z,16.33
2017-12-02T02:13:25.367Z,15.60
2017-12-02T02:15:51.958Z,15.87
2017-12-02T02:18:18.591Z,15.80
2017-12-02T02:20:45.186Z,16.00
2017-12-02T02:23:11.777Z,16.07
2017-12-02T02:25:38.382Z,15.20
2017-12-02T02:28:04.978Z,15.30
2017-12-02T02:30:31.581Z,15.80
2017-12-02T02:32:58.191Z,15.27
2017-12-02T02:35:25.511Z,15.07
2017-12-02T02:37:52.102Z,13.97
2017-12-02T02:40:18.710Z,14.90
2017-12-02T02:42:45.302Z,14.40
2017-12-02T02:45:11.890Z,14.63
2017-12-02T02:47:38.507Z,15.10
2017-12-02T02:50:05.098Z,14.53
2017-12-02T02:52:31.699Z,15.37
2017-12-02T02:54:58.328Z,14.57
2017-12-02T02:57:24.901Z,14.07
2017-12-02T02:59:51.494Z,15.73
2017-12-02T03:02:18.102Z,15.00
2017-12-02T03:04:45.258Z,15.70
2017-12-02T03:07:11.923Z,14.60
2017-12-02T03:09:38.561Z,15.20
2017-12-02T03:12:05.174Z,15.67
2017-12-02T03:14:31.766Z,15.50
2017-12-02T03:16:58.371Z,14.80
2017-12-02T03:19:24.971Z,14.97
2017-12-02T03:21:51.566Z,14.93
2017-12-02T03:24:18.169Z,15.00
2017-12-02T03:26:44.762Z,15.00
2017-12-02T03:29:12.070Z,14.07
2017-12-02T03:31:38.723Z,16.23
2017-12-02T03:34:05.313Z,15.40
2017-12-02T03:36:31.898Z,15.50
2017-12-02T03:38:58.618Z,15.50
2017-12-02T03:41:26.070Z,16.60
2017-12-02T03:43:52.664Z,15.77
2017-12-02T03:46:19.275Z,15.93
2017-12-02T03:48:45.854Z,15.87
2017-12-02T03:51:12.446Z,16.20
2017-12-02T03:53:39.061Z,15.97
2017-12-02T03:56:05.674Z,15.43
2017-12-02T03:58:32.254Z,16.80
2017-12-02T04:00:58.849Z,16.20
2017-12-02T04:03:25.442Z,17.87
2017-12-02T04:05:52.030Z,17.27
2017-12-02T04:08:18.640Z,16.77
2017-12-02T04:10:45.236Z,17.97
2017-12-02T04:13:11.834Z,16.77
2017-12-02T04:15:38.503Z,16.33
2017-12-02T04:18:05.358Z,15.40
2017-12-02T04:20:31.963Z,15.97
2017-12-02T04:22:58.563Z,16.20
2017-12-02T04:25:25.154Z,16.57
2017-12-02T04:27:53.118Z,16.00
2017-12-02T04:30:19.730Z,15.40
2017-12-02T04:32:46.927Z,16.23
2017-12-02T04:35:13.582Z,15.00
2017-12-02T04:37:40.738Z,16.70
2017-12-02T04:40:07.706Z,15.87
2017-12-02T04:42:34.322Z,16.17
2017-12-02T04:45:00.953Z,16.17
2017-12-02T04:47:27.523Z,16.20
2017-12-02T04:49:54.114Z,16.53
2017-12-02T04:52:20.727Z,16.60
2017-12-02T04:54:47.314Z,17.00
2017-12-02T04:57:13.946Z,17.53
2017-12-02T04:59:40.558Z,17.60
2017-12-02T05:02:07.150Z,15.93
2017-12-02T05:04:33.741Z,16.53
2017-12-02T05:07:00.353Z,16.40
2017-12-02T05:09:27.007Z,15.50
2017-12-02T05:11:53.593Z,16.57
2017-12-02T05:14:20.202Z,16.83
2017-12-02T05:16:46.798Z,16.13
2017-12-02T05:19:13.393Z,16.40
2017-12-02T05:21:40.010Z,16.33
2017-12-02T05:24:06.601Z,17.33
2017-12-02T05:26:33.200Z,15.90
2017-12-02T05:28:59.798Z,16.20
2017-12-02T05:31:26.406Z,15.77
2017-12-02T05:33:52.997Z,16.23
2017-12-02T05:36:19.621Z,16.47
2017-12-02T05:38:46.221Z,15.80
2017-12-02T05:41:12.810Z,16.40
2017-12-02T05:43:39.419Z,16.43
2017-12-02T05:46:06.018Z,16.30
2017-12-02T05:48:32.616Z,15.77
2017-12-02T05:50:59.225Z,15.90
2017-12-02T05:53:25.814Z,16.70
2017-12-02T05:55:52.408Z,15.80
2017-12-02T05:58:19.006Z,15.80
2017-12-02T06:00:45.594Z,16.60
2017-12-02T06:03:12.210Z,15.87
2017-12-02T06:05:38.822Z,15.40
2017-12-02T06:08:05.414Z,16.00
2017-12-02T06:10:32.017Z,16.83
2017-12-02T06:12:58.633Z,17.00
2017-12-02T06:15:25.235Z,16.50
2017-12-02T06:17:51.834Z,16.83
2017-12-02T06:20:18.450Z,17.07
2017-12-02T06:22:45.046Z,16.27
2017-12-02T06:25:11.637Z,16.10
2017-12-02T06:27:38.250Z,17.13
2017-12-02T06:30:04.867Z,15.80
2017-12-02T06:32:31.454Z,16.50
2017-12-02T06:34:58.054Z,16.63
2017-12-02T06:37:24.646Z,17.07
2017-12-02T06:39:51.238Z,16.33
2017-12-02T06:42:17.847Z,15.90
2017-12-02T06:44:44.461Z,16.77
2017-12-02T06:47:11.054Z,15.93
2017-12-02T06:49:37.675Z,16.30
2017-12-02T06:52:04.271Z,15.40
2017-12-02T06:54:30.866Z,16.47
2017-12-02T06:56:57.479Z,16.23
2017-12-02T06:59:24.072Z,15.20
2017-12-02T07:01:50.683Z,16.60
2017-12-02T07:04:17.286Z,15.40
2017-12-02T07:06:43.886Z,16.80
2017-12-02T07:09:10.479Z,16.87
2017-12-02T07:11:37.093Z,15.70
2017-12-02T07:14:03.699Z,16.73
2017-12-02T07:16:30.288Z,16.07
2017-12-02T07:18:56.908Z,16.30
2017-12-02T07:21:23.498Z,14.70
2017-12-02T07:23:50.094Z,14.83
2017-12-02T07:26:16.700Z,15.90
2017-12-02T07:28:43.289Z,14.33
2017-12-02T07:31:09.890Z,15.40
2017-12-02T07:33:36.505Z,15.10
2017-12-02T07:36:03.098Z,15.20
2017-12-02T07:38:29.694Z,15.50
2017-12-02T07:40:56.298Z,15.47
2017-12-02T07:43:22.886Z,15.60
2017-12-02T07:45:49.479Z,15.03
2017-12-02T07:48:16.082Z,15.50
2017-12-02T07:50:42.681Z,15.97
2017-12-02T07:53:09.269Z,15.80
2017-12-02T07:55:35.878Z,16.03
2017-12-02T07:58:02.475Z,15.97
2017-12-02T08:00:29.057Z,15.57
2017-12-02T08:02:55.658Z,14.83
2017-12-02T08:05:22.250Z,17.70
2017-12-02T08:07:48.838Z,18.03
2017-12-02T08:10:15.443Z,22.40
2017-12-02T08:12:42.054Z,20.70
2017-12-02T08:15:08.650Z,22.00
2017-12-02T08:17:35.254Z,18.67
2017-12-02T08:20:01.842Z,18.17
2017-12-02T08:22:28.434Z,18.70
2017-12-02T08:24:55.054Z,19.70
2017-12-02T08:27:21.671Z,20.37
2017-12-02T08:29:48.254Z,20.90
2017-12-02T08:32:15.006Z,22.50
2017-12-02T08:34:41.581Z,22.60
2017-12-02T08:37:08.177Z,22.93
2017-12-02T08:39:34.782Z,22.40
2017-12-02T08:42:01.382Z,22.57
2017-12-02T08:44:27.966Z,24.03
2017-12-02T08:46:54.570Z,25.77
2017-12-02T08:49:21.166Z,24.60
2017-12-02T08:51:47.762Z,23.27
2017-12-02T08:54:14.358Z,23.67
2017-12-02T08:56:40.950Z,24.70
2017-12-02T08:59:07.598Z,25.67
2017-12-02T09:01:34.198Z,25.57
2017-12-02T09:04:00.800Z,26.20
2017-12-02T09:06:27.386Z,25.53
2017-12-02T09:08:54.566Z,27.13
2017-12-02T09:11:21.210Z,26.20
2017-12-02T09:13:47.804Z,26.97
2017-12-02T09:16:14.406Z,25.00
2017-12-02T09:18:40.994Z,27.37
2017-12-02T09:21:07.585Z,28.45
2017-12-02T09:23:34.254Z,27.37
2017-12-02T09:26:00.846Z,28.00
2017-12-02T09:28:27.437Z,27.27
2017-12-02T09:30:54.042Z,26.83
2017-12-02T09:33:20.629Z,26.07
2017-12-02T09:35:47.218Z,27.93
2017-12-02T09:38:13.826Z,27.97
2017-12-02T09:40:40.418Z,29.50
2017-12-02T09:43:07.018Z,31.30
2017-12-02T09:45:33.623Z,27.67
2017-12-02T09:48:00.213Z,26.80
2017-12-02T09:50:26.802Z,28.47
2017-12-02T09:52:53.405Z,27.27
2017-12-02T09:55:19.994Z,33.57
2017-12-02T09:57:46.586Z,29.60
2017-12-02T10:00:13.261Z,30.40
2017-12-02T10:02:39.842Z,29.77
2017-12-02T10:05:06.426Z,29.77
2017-12-02T10:07:33.037Z,30.77
2017-12-02T10:09:59.626Z,27.83
2017-12-02T10:12:26.214Z,27.27
2017-12-02T10:14:52.817Z,28.37
2017-12-02T10:17:19.410Z,26.27
2017-12-02T10:19:46.002Z,27.13
2017-12-02T10:22:12.605Z,28.70
2017-12-02T10:24:39.201Z,28.03
2017-12-02T10:27:05.787Z,28.70
2017-12-02T10:29:32.401Z,28.10
2017-12-02T10:31:58.982Z,29.03
2017-12-02T10:34:25.582Z,30.23
2017-12-02T10:36:52.182Z,30.47
2017-12-02T10:39:18.771Z,29.10
2017-12-02T10:41:45.361Z,27.83
2017-12-02T10:44:11.966Z,27.50
2017-12-02T10:46:38.555Z,27.20
2017-12-02T10:49:05.146Z,27.40
2017-12-02T10:51:31.753Z,27.53
2017-12-02T10:53:58.341Z,27.77
2017-12-02T10:56:24.994Z,28.17
2017-12-02T10:58:51.579Z,30.03
2017-12-02T11:01:18.162Z,27.53
2017-12-02T11:03:44.753Z,27.57
2017-12-02T11:06:11.368Z,26.87
2017-12-02T11:08:37.962Z,28.03
2017-12-02T11:11:04.545Z,27.30
2017-12-02T11:13:31.170Z,28.83
2017-12-02T11:15:57.826Z,29.10
2017-12-02T11:18:24.363Z,30.43
2017-12-02T11:20:50.966Z,29.10
2017-12-02T11:23:17.554Z,28.70
2017-12-02T11:25:44.146Z,28.53
2017-12-02T11:28:10.746Z,29.33
2017-12-02T11:30:37.342Z,28.40
2017-12-02T11:33:03.944Z,28.27
2017-12-02T11:35:30.545Z,30.47
2017-12-02T11:37:57.142Z,34.90
2017-12-02T11:40:23.730Z,33.60
2017-12-02T11:42:50.342Z,28.10
2017-12-02T11:45:16.942Z,31.40
2017-12-02T11:47:43.530Z,30.03
2017-12-02T11:50:10.146Z,27.77
2017-12-02T11:52:36.769Z,29.13
2017-12-02T11:55:03.362Z,30.50
2017-12-02T11:57:29.969Z,28.37
2017-12-02T11:59:56.566Z,29.33
2017-12-02T12:02:23.154Z,28.00
2017-12-02T12:04:49.754Z,28.47
2017-12-02T12:07:16.341Z,28.87
2017-12-02T12:09:42.951Z,28.33
2017-12-02T12:12:09.550Z,31.62
2017-12-02T12:14:36.137Z,29.13
2017-12-02T12:17:02.747Z,30.53
2017-12-02T12:19:29.355Z,31.37
2017-12-02T12:21:55.946Z,28.60
2017-12-02T12:24:22.538Z,29.60
2017-12-02T12:26:49.152Z,27.43
2017-12-02T12:29:15.736Z,27.63
2017-12-02T12:31:42.327Z,26.83
2017-12-02T12:34:08.934Z,33.20
2017-12-02T12:36:35.526Z,27.83
2017-12-02T12:39:02.123Z,28.43
2017-12-02T12:41:28.741Z,27.00
2017-12-02T12:43:55.360Z,28.07
2017-12-02T12:46:21.952Z,29.43
2017-12-02T12:48:48.562Z,28.30
2017-12-02T12:51:15.154Z,28.90
2017-12-02T12:53:41.763Z,26.90
2017-12-02T12:56:08.402Z,26.93
2017-12-02T12:58:35.010Z,26.27
2017-12-02T13:01:01.601Z,26.10
2017-12-02T13:03:28.210Z,26.40
2017-12-02T13:05:54.801Z,27.50
2017-12-02T13:08:21.390Z,26.63
2017-12-02T13:10:48.001Z,27.10
2017-12-02T13:13:14.582Z,26.80
2017-12-02T13:15:41.170Z,27.50
2017-12-02T13:18:07.784Z,26.90
2017-12-02T13:20:34.369Z,26.77
2017-12-02T13:23:00.962Z,26.20
2017-12-02T13:25:27.579Z,27.33
2017-12-02T13:27:54.166Z,25.80
2017-12-02T13:30:20.758Z,25.53
2017-12-02T13:32:47.358Z,25.13
2017-12-02T13:35:13.947Z,25.17
2017-12-02T13:37:40.534Z,25.90
2017-12-02T13:40:07.152Z,26.43
2017-12-02T13:42:33.744Z,25.50
2017-12-02T13:45:00.338Z,23.30
2017-12-02T13:47:26.950Z,24.37
2017-12-02T13:49:53.538Z,25.27
2017-12-02T13:52:20.130Z,26.80
2017-12-02T13:54:46.730Z,24.87
2017-12-02T13:57:13.321Z,25.40
2017-12-02T13:59:39.910Z,26.07
2017-12-02T14:02:06.520Z,26.17
2017-12-02T14:04:33.116Z,24.20
2017-12-02T14:06:59.699Z,26.10
2017-12-02T14:09:26.323Z,24.20
2017-12-02T14:11:52.909Z,26.40
2017-12-02T14:14:19.517Z,26.17
2017-12-02T14:16:46.118Z,26.57
2017-12-02T14:19:12.706Z,24.63
2017-12-02T14:21:39.299Z,24.50
2017-12-02T14:24:05.904Z,24.10
2017-12-02T14:26:32.490Z,25.57
2017-12-02T14:28:59.082Z,25.10
2017-12-02T14:31:25.681Z,25.00
2017-12-02T14:33:52.287Z,25.00
2017-12-02T14:36:18.874Z,24.93
2017-12-02T14:38:45.486Z,24.43
2017-12-02T14:41:12.089Z,24.20
2017-12-02T14:43:38.686Z,24.57
2017-12-02T14:46:05.286Z,25.13
2017-12-02T14:48:31.878Z,25.40
2017-12-02T14:50:58.467Z,23.90
2017-12-02T14:53:25.091Z,24.60
2017-12-02T14:55:51.674Z,24.63
2017-12-02T14:58:18.270Z,24.83
2017-12-02T15:00:44.870Z,23.87
2017-12-02T15:03:11.463Z,27.70
2017-12-02T15:05:38.054Z,24.23
2017-12-02T15:08:04.657Z,23.90
2017-12-02T15:10:31.255Z,23.90
2017-12-02T15:12:57.843Z,22.97
2017-12-02T15:15:24.450Z,24.80
2017-12-02T15:17:51.042Z,24.90
2017-12-02T15:20:17.649Z,24.47
2017-12-02T15:22:44.264Z,25.50
2017-12-02T15:25:10.858Z,26.90
2017-12-02T15:27:37.455Z,25.77
2017-12-02T15:30:04.100Z,24.20
2017-12-02T15:32:30.691Z,23.37
2017-12-02T15:34:57.274Z,23.30
2017-12-02T15:37:23.918Z,23.20
2017-12-02T15:39:50.506Z,23.90
2017-12-02T15:42:17.102Z,24.87
2017-12-02T15:44:43.718Z,23.87
2017-12-02T15:47:10.313Z,22.47
2017-12-02T15:49:36.902Z,22.70
2017-12-02T15:52:03.523Z,24.67
2017-12-02T15:54:30.113Z,22.07
2017-12-02T15:56:56.716Z,23.27
2017-12-02T15:59:23.319Z,22.30
2017-12-02T16:01:49.911Z,23.97
2017-12-02T16:04:16.501Z,24.20
2017-12-02T16:06:43.108Z,22.90
2017-12-02T16:09:09.697Z,22.50
2017-12-02T16:11:36.290Z,22.63
2017-12-02T16:14:02.898Z,23.17
2017-12-02T16:16:29.486Z,23.80
2017-12-02T16:18:56.080Z,24.30
2017-12-02T16:21:22.693Z,23.47
2017-12-02T16:23:49.282Z,26.83
2017-12-02T16:26:15.874Z,27.50
2017-12-02T16:28:42.491Z,29.30
2017-12-02T16:31:09.087Z,27.40
2017-12-02T16:33:35.673Z,30.73
2017-12-02T16:36:02.278Z,33.53
2017-12-02T16:38:28.871Z,31.23
2017-12-02T16:40:55.461Z,29.10
2017-12-02T16:43:22.069Z,27.07
2017-12-02T16:45:48.662Z,25.60
2017-12-02T16:48:15.250Z,29.70
2017-12-02T16:50:41.854Z,28.80
2017-12-02T16:53:08.507Z,27.40
2017-12-02T16:55:35.078Z,27.07
2017-12-02T16:58:01.681Z,26.47
2017-12-02T17:00:28.270Z,28.40
2017-12-02T17:02:54.862Z,27.50
2017-12-02T17:05:21.478Z,27.03
2017-12-02T17:07:48.078Z,25.47
2017-12-02T17:10:14.665Z,24.70
2017-12-02T17:12:41.279Z,24.80
2017-12-02T17:15:07.869Z,24.50
2017-12-02T17:17:34.454Z,24.23
2017-12-02T17:20:01.054Z,23.30
2017-12-02T17:22:27.650Z,23.80
2017-12-02T17:24:54.239Z,23.00
2017-12-02T17:27:20.846Z,23.47
2017-12-02T17:29:47.438Z,22.33
2017-12-02T17:32:14.027Z,22.50
2017-12-02T17:34:40.863Z,23.80
2017-12-02T17:37:07.446Z,23.73
2017-12-02T17:39:34.059Z,22.77
2017-12-02T17:42:00.662Z,22.73
2017-12-02T17:44:27.254Z,24.07
2017-12-02T17:46:53.838Z,25.17
2017-12-02T17:49:20.450Z,23.50
2017-12-02T17:51:47.046Z,23.60
2017-12-02T17:54:13.637Z,25.37
2017-12-02T17:56:40.258Z,23.77
2017-12-02T17:59:06.841Z,25.57
2017-12-02T18:01:33.439Z,25.10
2017-12-02T18:04:00.042Z,25.80
2017-12-02T18:06:26.638Z,23.87
2017-12-02T18:08:53.222Z,24.20
2017-12-02T18:11:19.838Z,23.70
2017-12-02T18:13:46.495Z,23.00
2017-12-02T18:16:13.086Z,22.40
2017-12-02T18:18:39.693Z,23.50
2017-12-02T18:21:06.279Z,22.97
2017-12-02T18:23:32.870Z,22.47
2017-12-02T18:25:59.481Z,22.23
2017-12-02T18:28:26.078Z,23.10
2017-12-02T18:30:52.671Z,25.00
2017-12-02T18:33:19.285Z,25.00
2017-12-02T18:35:45.865Z,22.87
2017-12-02T18:38:12.462Z,22.50
2017-12-02T18:40:39.078Z,22.40
2017-12-02T18:43:05.674Z,22.10
2017-12-02T18:45:32.271Z,21.73
2017-12-02T18:47:58.882Z,21.47
2017-12-02T18:50:25.471Z,22.40
2017-12-02T18:52:52.069Z,22.60
2017-12-02T18:55:18.682Z,21.47
2017-12-02T18:57:45.283Z,21.13
2017-12-02T19:00:11.865Z,21.00
2017-12-02T19:02:38.469Z,20.17
2017-12-02T19:05:05.062Z,18.93
2017-12-02T19:07:31.662Z,19.87
2017-12-02T19:09:58.284Z,21.43
2017-12-02T19:12:24.870Z,19.47
2017-12-02T19:14:51.524Z,20.97
2017-12-02T19:17:18.126Z,25.50
2017-12-02T19:19:45.746Z,23.10
2017-12-02T19:22:12.330Z,22.10
2017-12-02T19:24:38.987Z,23.20
2017-12-02T19:27:05.570Z,22.90
2017-12-02T19:29:32.166Z,22.50
2017-12-02T19:31:58.774Z,21.20
2017-12-02T19:34:25.370Z,21.00
2017-12-02T19:36:51.986Z,22.20
2017-12-02T19:39:18.621Z,22.60
2017-12-02T19:41:45.216Z,19.60
2017-12-02T19:44:11.865Z,22.63
2017-12-02T19:46:38.459Z,24.27
2017-12-02T19:49:05.045Z,23.60
2017-12-02T19:51:31.643Z,23.47
2017-12-02T19:53:58.250Z,23.40
2017-12-02T19:56:24.866Z,22.97
2017-12-02T19:58:51.458Z,22.63
2017-12-02T20:01:18.107Z,24.50
2017-12-02T20:03:44.718Z,23.33
2017-12-02T20:06:11.312Z,22.90
2017-12-02T20:08:37.921Z,22.43
2017-12-02T20:11:04.518Z,23.63
2017-12-02T20:13:31.105Z,23.17
2017-12-02T20:15:57.714Z,28.93
2017-12-02T20:18:24.302Z,22.70
2017-12-02T20:20:50.923Z,23.07
2017-12-02T20:23:17.554Z,22.30
2017-12-02T20:25:44.143Z,23.93
2017-12-02T20:28:10.740Z,24.47
2017-12-02T20:30:37.341Z,28.17
2017-12-02T20:33:03.930Z,26.60
2017-12-02T20:35:30.529Z,25.40
2017-12-02T20:37:57.142Z,27.90
2017-12-02T20:40:23.730Z,28.07
2017-12-02T20:42:50.328Z,27.70
2017-12-02T20:45:16.934Z,24.03
2017-12-02T20:47:43.523Z,23.00
2017-12-02T20:50:10.109Z,23.73
2017-12-02T20:52:36.714Z,23.30
2017-12-02T20:55:03.335Z,22.43
2017-12-02T20:57:29.946Z,23.70
2017-12-02T20:59:56.546Z,23.83
2017-12-02T21:02:23.150Z,22.30
2017-12-02T21:04:49.737Z,21.63
2017-12-02T21:07:16.350Z,23.13
2017-12-02T21:09:42.947Z,22.47
2017-12-02T21:12:09.546Z,20.80
2017-12-02T21:14:36.175Z,21.73
2017-12-02T21:17:02.778Z,21.93
2017-12-02T21:19:29.361Z,23.60
2017-12-02T21:21:55.977Z,22.27
2017-12-02T21:24:22.561Z,22.93
2017-12-02T21:26:49.146Z,21.70
2017-12-02T21:29:15.776Z,21.73
2017-12-02T21:31:42.378Z,23.90
2017-12-02T21:34:08.963Z,22.70
2017-12-02T21:36:35.574Z,22.17
2017-12-02T21:39:02.162Z,21.60
2017-12-02T21:41:28.754Z,19.90
2017-12-02T21:43:55.355Z,22.00
2017-12-02T21:46:21.946Z,20.90
2017-12-02T21:48:48.530Z,20.77
2017-12-02T21:51:15.146Z,20.67
2017-12-02T21:53:41.739Z,19.83
2017-12-02T21:56:08.334Z,18.90
2017-12-02T21:58:34.934Z,20.17
2017-12-02T22:01:01.531Z,20.97
2017-12-02T22:03:28.118Z,20.43
2017-12-02T22:05:54.750Z,20.87
2017-12-02T22:08:22.042Z,21.70
2017-12-02T22:10:48.662Z,23.10
2017-12-02T22:13:15.396Z,21.70
2017-12-02T22:15:41.988Z,22.97
2017-12-02T22:18:08.595Z,24.33
2017-12-02T22:20:35.358Z,23.10
2017-12-02T22:23:01.942Z,22.27
2017-12-02T22:25:28.529Z,22.87
2017-12-02T22:27:55.159Z,21.80
2017-12-02T22:30:21.754Z,20.83
2017-12-02T22:32:48.342Z,21.80
2017-12-02T22:35:14.970Z,21.27
2017-12-02T22:37:41.559Z,22.13
2017-12-02T22:40:08.150Z,21.93
2017-12-02T22:42:34.769Z,22.10
2017-12-02T22:45:01.357Z,22.30
2017-12-02T22:47:28.014Z,21.07
2017-12-02T22:49:54.623Z,22.13
2017-12-02T22:52:21.215Z,22.23
2017-12-02T22:54:47.808Z,20.67
2017-12-02T22:57:14.410Z,21.03
2017-12-02T22:59:41.003Z,21.80
2017-12-02T23:02:07.591Z,20.40
2017-12-02T23:04:34.226Z,21.20
2017-12-02T23:07:01.657Z,22.03
2017-12-02T23:09:28.258Z,19.33
2017-12-02T23:11:54.861Z,21.17
2017-12-02T23:14:21.446Z,20.23
2017-12-02T23:16:48.039Z,20.93
2017-12-02T23:19:14.643Z,21.20
2017-12-02T23:21:41.235Z,20.77
2017-12-02T23:24:07.836Z,20.00
2017-12-02T23:26:34.429Z,20.30
2017-12-02T23:29:01.021Z,20.23
2017-12-02T23:31:27.614Z,20.10
2017-12-02T23:33:54.222Z,20.13
2017-12-02T23:36:20.817Z,18.87
2017-12-02T23:38:47.406Z,20.40
2017-12-02T23:41:14.039Z,20.33
2017-12-02T23:43:40.610Z,20.27
2017-12-02T23:46:07.201Z,18.90
2017-12-02T23:48:33.822Z,19.73
2017-12-02T23:51:00.390Z,20.97
2017-12-02T23:53:26.978Z,19.40
2017-12-02T23:55:53.596Z,20.30
2017-12-02T23:58:20.182Z,19.40
